This is the latest recevied weather packets stored in our database for station/object K5DLF-9. If no packets are shown the sender has not sent any weather packets the latest 10 day(s).
| Time | Temp. | Humidity | Pressure | Rain* | Wind** | Luminosity | Snow |
|---|---|---|---|---|---|---|---|
| 1788479737 | 30° C | 83% | 1009.8 hPa | 0 mm | - | 23 W/m² | - |
| 1788477937 | 30° C | 83% | 1009.6 hPa | 0 mm | - | 37 W/m² | - |
| 1788476737 | 30° C | 83% | 1009.3 hPa | 0 mm | - | 46 W/m² | - |
| 1788476136 | 30.56° C | 83% | 1009.5 hPa | 0 mm | - | 49 W/m² | - |
| 1788471344 | 30° C | 83% | 1010.5 hPa | 0 mm | - | 86 W/m² | - |
| 1788468937 | 29.44° C | 81% | 1010.4 hPa | 0 mm | - | 95 W/m² | - |
| 1788467736 | 29.44° C | 81% | 1010.8 hPa | 0 mm | - | 93 W/m² | - |
| 1788465336 | 31.11° C | 75% | 1010.4 hPa | 0 mm | - | 105 W/m² | - |
| 1788464738 | 31.67° C | 72% | 1011 hPa | 0 mm | - | 104 W/m² | - |
| 1788463537 | 33.89° C | 64% | 1011.1 hPa | 0 mm | - | 163 W/m² | - |
| 1788462339 | 34.44° C | 68% | 1010.6 hPa | 0 mm | - | 773 W/m² | - |
| 1788460539 | 34.44° C | 70% | 1010.9 hPa | 0 mm | - | 547 W/m² | - |
| 1788456338 | 32.78° C | 79% | 1011.5 hPa | 0 mm | - | 448 W/m² | - |
| 1788455140 | 31.67° C | 83% | 1011.7 hPa | 0 mm | - | 272 W/m² | - |
| 1788453338 | 30° C | 86% | 1011.9 hPa | 0 mm | - | 294 W/m² | - |
| 1788450939 | 28.89° C | 90% | 1011.8 hPa | 0 mm | - | 181 W/m² | - |
| 1788448538 | 27.78° C | 91% | 1011.6 hPa | 0 mm | - | 113 W/m² | - |
| 1788447338 | 27.22° C | 92% | 1011.6 hPa | 0 mm | - | 100 W/m² | - |
| 1788444938 | 26.67° C | 91% | 1011.9 hPa | 0 mm | - | 47 W/m² | - |
| 1788439539 | 26.67° C | 90% | 1011.6 hPa | 0 mm | - | 7 W/m² | - |
| 1788429337 | 27.22° C | 92% | 1010.4 hPa | 0 mm | - | 0 W/m² | - |
| 1788427538 | 27.22° C | 91% | 1010.5 hPa | 0 mm | - | 0 W/m² | - |
| 1788425137 | 27.22° C | 91% | 1010.6 hPa | 0 mm | - | 0 W/m² | - |
| 1788423338 | 27.22° C | 91% | 1010.4 hPa | 0 mm | - | 0 W/m² | - |
| 1788419739 | 27.78° C | 90% | 1010.5 hPa | 0 mm | - | 0 W/m² | - |
* Rain latest hour (hover to see other rain measurements)
** Current wind speed in m/s (hover to see current wind gust speed)